createdAt,value
2022-10-18T00:00:49.201Z,102532.28
2022-10-18T00:03:16.598Z,102530.66
2022-10-18T00:05:44.105Z,102520.72
2022-10-18T00:08:11.694Z,102527.06
2022-10-18T00:10:39.127Z,102532.28
2022-10-18T00:13:06.777Z,102531.78
2022-10-18T00:15:34.283Z,102531.78
2022-10-18T00:18:01.751Z,102526.91
2022-10-18T00:20:29.172Z,102521.72
2022-10-18T00:22:56.695Z,102521.38
2022-10-18T00:25:24.150Z,102528.91
2022-10-18T00:27:52.557Z,102534.44
2022-10-18T00:30:19.953Z,102533.28
2022-10-18T00:32:47.379Z,102532.44
2022-10-18T00:35:14.820Z,102529.22
2022-10-18T00:37:42.512Z,102529.06
2022-10-18T00:40:10.531Z,102521.09
2022-10-18T00:42:38.442Z,102518.66
2022-10-18T00:45:13.378Z,102526.66
2022-10-18T00:47:41.681Z,102525.00
2022-10-18T00:50:10.441Z,102528.78
2022-10-18T00:52:44.870Z,102534.31
2022-10-18T00:55:13.126Z,102535.13
2022-10-18T00:57:43.257Z,102531.06
2022-10-18T01:00:12.233Z,102533.00
2022-10-18T01:02:43.312Z,102536.94
2022-10-18T01:05:13.583Z,102534.19
2022-10-18T01:08:09.190Z,102538.56
2022-10-18T01:10:48.451Z,102534.50
2022-10-18T01:13:24.845Z,102532.06
2022-10-18T01:16:01.547Z,102527.19
2022-10-18T01:18:43.701Z,102536.63
2022-10-18T01:21:26.634Z,102532.13
2022-10-18T01:24:12.209Z,102547.91
2022-10-18T01:27:07.569Z,102543.03
2022-10-18T01:29:53.226Z,102544.63
2022-10-18T01:32:25.107Z,102538.31
2022-10-18T01:34:58.569Z,102537.16
2022-10-18T01:37:30.015Z,102523.31
2022-10-18T01:40:00.222Z,102533.56
2022-10-18T01:42:28.499Z,102525.59
2022-10-18T01:44:57.245Z,102526.75
2022-10-18T01:47:25.559Z,102525.78
2022-10-18T01:50:04.287Z,102525.28
2022-10-18T01:52:32.079Z,102533.94
2022-10-18T01:55:00.582Z,102531.84
2022-10-18T01:57:48.041Z,102541.94
2022-10-18T02:00:33.627Z,102544.22
2022-10-18T02:03:06.853Z,102549.25
2022-10-18T02:05:53.347Z,102548.78
2022-10-18T02:08:39.011Z,102547.16
2022-10-18T02:11:10.093Z,102541.13
2022-10-18T02:13:43.048Z,102538.22
2022-10-18T02:16:14.526Z,102542.16
2022-10-18T02:18:48.724Z,102544.75
2022-10-18T02:21:19.437Z,102540.03
2022-10-18T02:23:47.817Z,102540.69
2022-10-18T02:26:16.175Z,102541.34
2022-10-18T02:28:44.806Z,102548.00
2022-10-18T02:31:19.044Z,102550.31
2022-10-18T02:33:53.519Z,102551.78
2022-10-18T02:36:42.893Z,102546.56
2022-10-18T02:39:25.033Z,102552.75
2022-10-18T02:41:54.602Z,102545.44
2022-10-18T02:44:22.028Z,102547.69
2022-10-18T02:46:49.659Z,102534.88
2022-10-18T02:49:17.216Z,102541.88
2022-10-18T02:51:44.754Z,102549.66
2022-10-18T02:54:12.239Z,102559.59
2022-10-18T02:56:39.866Z,102547.56
2022-10-18T02:59:07.539Z,102555.84
2022-10-18T03:01:36.295Z,102550.16
2022-10-18T03:04:04.901Z,102545.28
2022-10-18T03:06:33.004Z,102553.75
2022-10-18T03:09:02.659Z,102551.16
2022-10-18T03:11:30.599Z,102549.03
2022-10-18T03:13:58.115Z,102550.94
2022-10-18T03:16:25.531Z,102540.84
2022-10-18T03:18:53.030Z,102551.25
2022-10-18T03:21:20.413Z,102543.44
2022-10-18T03:23:47.775Z,102545.41
2022-10-18T03:26:15.236Z,102552.38
2022-10-18T03:28:42.712Z,102544.59
2022-10-18T03:31:10.219Z,102540.84
2022-10-18T03:33:37.851Z,102540.84
2022-10-18T03:36:05.406Z,102564.06
2022-10-18T03:38:32.759Z,102573.50
2022-10-18T03:41:00.429Z,102566.34
2022-10-18T03:43:28.023Z,102559.00
2022-10-18T03:45:55.788Z,102565.03
2022-10-18T03:48:23.462Z,102557.06
2022-10-18T03:50:50.801Z,102562.91
2022-10-18T03:53:18.184Z,102577.84
2022-10-18T03:55:51.378Z,102574.72
2022-10-18T03:58:19.643Z,102564.31
2022-10-18T04:00:50.965Z,102560.72
2022-10-18T04:03:19.259Z,102574.38
2022-10-18T04:05:47.609Z,102587.22
2022-10-18T04:08:15.602Z,102583.63
2022-10-18T04:10:44.411Z,102581.38
2022-10-18T04:13:11.909Z,102573.91
2022-10-18T04:15:39.363Z,102572.78
2022-10-18T04:18:06.974Z,102576.34
2022-10-18T04:20:34.385Z,102582.50
2022-10-18T04:23:01.876Z,102587.84
2022-10-18T04:25:29.810Z,102581.03
2022-10-18T04:27:57.413Z,102583.63
2022-10-18T04:30:24.780Z,102585.88
2022-10-18T04:32:52.335Z,102589.28
2022-10-18T04:35:22.647Z,102600.31
2022-10-18T04:37:50.879Z,102597.72
2022-10-18T04:40:19.955Z,102578.22
2022-10-18T04:42:47.581Z,102586.78
2022-10-18T04:45:15.275Z,102582.53
2022-10-18T04:47:42.708Z,102584.31
2022-10-18T04:50:10.194Z,102590.47
2022-10-18T04:52:37.733Z,102589.78
2022-10-18T04:55:05.631Z,102599.31
2022-10-18T04:57:33.338Z,102601.72
2022-10-18T05:00:01.057Z,102606.88
2022-10-18T05:02:28.703Z,102597.91
2022-10-18T05:04:56.113Z,102592.53
2022-10-18T05:07:24.103Z,102588.56
2022-10-18T05:09:51.607Z,102593.09
2022-10-18T05:12:19.028Z,102582.50
2022-10-18T05:14:46.453Z,102581.28
2022-10-18T05:17:14.289Z,102585.97
2022-10-18T05:19:41.649Z,102582.44
2022-10-18T05:22:09.088Z,102581.09
2022-10-18T05:24:36.403Z,102581.22
2022-10-18T05:27:03.882Z,102582.97
2022-10-18T05:29:31.315Z,102573.56
2022-10-18T05:31:58.743Z,102570.19
2022-10-18T05:34:27.440Z,102579.28
2022-10-18T05:36:54.791Z,102579.28
2022-10-18T05:39:22.449Z,102575.72
2022-10-18T05:41:49.818Z,102586.22
2022-10-18T05:44:17.296Z,102595.63
2022-10-18T05:46:44.687Z,102600.13
2022-10-18T05:49:13.279Z,102593.81
2022-10-18T05:51:40.744Z,102592.31
2022-10-18T05:54:09.727Z,102589.66
2022-10-18T05:59:12.731Z,102603.34
2022-10-18T06:01:41.252Z,102596.31
2022-10-18T06:04:12.414Z,102583.78
2022-10-18T06:06:40.435Z,102591.34
2022-10-18T06:09:08.629Z,102602.97
2022-10-18T06:11:37.044Z,102604.41
2022-10-18T06:14:05.580Z,102610.44
2022-10-18T06:16:33.152Z,102598.91
2022-10-18T06:19:00.543Z,102602.78
2022-10-18T06:21:28.251Z,102611.38
2022-10-18T06:23:57.979Z,102632.25
2022-10-18T06:26:27.057Z,102625.13
2022-10-18T06:28:55.159Z,102622.47
2022-10-18T06:31:22.827Z,102620.94
2022-10-18T06:33:50.650Z,102627.16
2022-10-18T06:36:22.245Z,102642.66
2022-10-18T06:38:50.471Z,102661.41
2022-10-18T06:41:19.369Z,102641.66
2022-10-18T06:43:50.887Z,102635.44
2022-10-18T06:46:18.259Z,102646.34
2022-10-18T06:48:46.363Z,102658.88
2022-10-18T06:51:15.368Z,102653.59
2022-10-18T06:53:44.570Z,102646.16
2022-10-18T06:56:21.135Z,102629.72
2022-10-18T06:58:48.477Z,102650.72
2022-10-18T07:01:17.705Z,102656.25
2022-10-18T07:03:47.791Z,102666.81
2022-10-18T07:06:17.683Z,102660.81
2022-10-18T07:08:45.505Z,102655.50
2022-10-18T07:11:18.737Z,102671.63
2022-10-18T07:13:46.225Z,102681.50
2022-10-18T07:16:18.385Z,102676.00
2022-10-18T07:18:52.073Z,102657.66
2022-10-18T07:21:24.208Z,102666.75
2022-10-18T07:23:52.769Z,102683.97
2022-10-18T07:26:29.366Z,102688.13
2022-10-18T07:29:04.881Z,102686.63
2022-10-18T07:31:33.471Z,102674.38
2022-10-18T07:34:01.061Z,102694.03
2022-10-18T07:36:28.621Z,102707.41
2022-10-18T07:38:56.145Z,102699.53
2022-10-18T07:41:24.181Z,102699.75
2022-10-18T07:43:53.266Z,102702.59
2022-10-18T07:46:22.266Z,102702.47
2022-10-18T07:48:50.405Z,102703.78
2022-10-18T07:51:20.112Z,102706.63
2022-10-18T07:53:47.834Z,102706.44
2022-10-18T07:56:19.587Z,102720.81
2022-10-18T07:58:49.229Z,102719.88
2022-10-18T08:01:17.041Z,102720.88
2022-10-18T08:03:44.722Z,102723.91
2022-10-18T08:06:13.929Z,102735.28
2022-10-18T08:08:41.886Z,102735.06
2022-10-18T08:11:12.898Z,102735.25
2022-10-18T08:13:40.342Z,102736.44
2022-10-18T08:16:10.888Z,102756.13
2022-10-18T08:18:39.243Z,102753.88
2022-10-18T08:21:09.876Z,102756.31
2022-10-18T08:23:38.580Z,102749.84
2022-10-18T08:26:08.805Z,102751.34
2022-10-18T08:28:37.039Z,102759.88
2022-10-18T08:31:06.068Z,102764.16
2022-10-18T08:33:35.988Z,102762.09
2022-10-18T08:36:05.902Z,102768.44
2022-10-18T08:38:38.008Z,102764.94
2022-10-18T08:41:53.140Z,102748.44
2022-10-18T08:44:27.845Z,102754.97
2022-10-18T08:47:01.320Z,102765.75
2022-10-18T08:49:38.191Z,102760.41
2022-10-18T08:52:32.058Z,102758.31
2022-10-18T08:55:10.110Z,102769.06
2022-10-18T08:57:37.591Z,102776.75
2022-10-18T09:00:23.095Z,102767.66
2022-10-18T09:02:56.737Z,102768.97
2022-10-18T09:05:48.587Z,102759.03
2022-10-18T09:08:22.359Z,102766.84
2022-10-18T09:11:34.477Z,102767.50
2022-10-18T09:14:32.624Z,102754.47
2022-10-18T09:17:28.291Z,102772.72
2022-10-18T09:20:10.747Z,102764.25
2022-10-18T09:22:55.328Z,102761.00
2022-10-18T09:25:45.748Z,102761.97
2022-10-18T09:28:28.049Z,102763.94
2022-10-18T09:31:12.121Z,102775.16
2022-10-18T09:33:48.466Z,102782.00
2022-10-18T09:36:38.531Z,102784.94
2022-10-18T09:39:13.496Z,102795.66
2022-10-18T09:41:50.119Z,102793.69
2022-10-18T09:44:23.359Z,102799.41
2022-10-18T09:47:03.132Z,102796.16
2022-10-18T09:49:36.122Z,102789.47
2022-10-18T09:52:08.614Z,102802.47
2022-10-18T09:54:56.468Z,102802.88
2022-10-18T09:57:27.052Z,102802.09
2022-10-18T09:59:54.517Z,102801.84
2022-10-18T10:02:24.157Z,102803.53
2022-10-18T10:04:54.316Z,102817.16
2022-10-18T10:07:29.760Z,102818.44
2022-10-18T10:10:21.800Z,102825.47
2022-10-18T10:13:02.047Z,102825.25
2022-10-18T10:15:33.200Z,102828.31
2022-10-18T10:18:22.631Z,102834.69
2022-10-18T10:21:03.546Z,102842.00
2022-10-18T10:23:36.276Z,102839.03
2022-10-18T10:26:39.525Z,102848.13
2022-10-18T10:29:45.528Z,102841.22
2022-10-18T10:32:16.081Z,102844.75
2022-10-18T10:34:44.958Z,102845.44
2022-10-18T10:37:31.844Z,102854.09
2022-10-18T10:40:18.363Z,102848.00
2022-10-18T10:43:38.144Z,102849.91
2022-10-18T10:46:14.433Z,102846.19
2022-10-18T10:48:57.240Z,102853.06
2022-10-18T10:51:34.622Z,102856.66
2022-10-18T10:54:22.588Z,102863.09
2022-10-18T10:57:12.752Z,102865.53
2022-10-18T10:59:49.364Z,102854.78
2022-10-18T11:02:17.755Z,102857.09
2022-10-18T11:04:47.260Z,102855.25
2022-10-18T11:07:39.710Z,102869.19
2022-10-18T11:10:15.466Z,102874.19
2022-10-18T11:12:48.996Z,102872.31
2022-10-18T11:15:26.484Z,102877.91
2022-10-18T11:18:17.307Z,102876.34
2022-10-18T11:20:56.598Z,102871.38
2022-10-18T11:23:34.473Z,102864.94
2022-10-18T11:26:10.997Z,102866.72
2022-10-18T11:29:12.512Z,102876.00
2022-10-18T11:32:19.515Z,102880.53
2022-10-18T11:35:02.439Z,102888.19
2022-10-18T11:37:48.652Z,102893.53
2022-10-18T11:40:56.843Z,102887.03
2022-10-18T11:43:57.490Z,102896.19
2022-10-18T11:46:28.178Z,102892.69
2022-10-18T11:49:07.228Z,102888.53
2022-10-18T11:51:56.357Z,102892.22
2022-10-18T11:54:51.749Z,102895.16
2022-10-18T11:57:28.872Z,102887.16
2022-10-18T12:00:02.035Z,102882.97
2022-10-18T12:02:46.169Z,102883.56
2022-10-18T12:05:30.054Z,102876.13
2022-10-18T12:08:18.760Z,102867.03
2022-10-18T12:11:06.050Z,102873.84
2022-10-18T12:13:35.215Z,102871.31
2022-10-18T12:16:05.287Z,102871.81
2022-10-18T12:18:35.522Z,102862.38
2022-10-18T12:21:06.539Z,102878.81
2022-10-18T12:23:39.286Z,102874.03
2022-10-18T12:26:09.942Z,102876.47
2022-10-18T12:28:37.334Z,102867.38
2022-10-18T12:31:20.200Z,102864.28
2022-10-18T12:34:29.067Z,102864.66
2022-10-18T12:37:08.819Z,102869.91
2022-10-18T12:39:57.881Z,102869.75
2022-10-18T12:42:40.788Z,102868.56
2022-10-18T12:45:28.147Z,102864.25
2022-10-18T12:48:08.564Z,102871.06
2022-10-18T12:50:42.601Z,102867.06
2022-10-18T12:53:17.064Z,102870.56
2022-10-18T12:55:51.813Z,102865.16
2022-10-18T12:58:31.623Z,102874.06
2022-10-18T13:01:05.176Z,102870.63
2022-10-18T13:04:00.807Z,102867.72
2022-10-18T13:07:00.522Z,102873.34
2022-10-18T13:09:31.434Z,102875.16
2022-10-18T13:12:19.018Z,102860.66
2022-10-18T13:15:05.626Z,102861.75
2022-10-18T13:17:42.922Z,102866.84
2022-10-18T13:20:37.379Z,102867.22
2022-10-18T13:23:24.701Z,102862.81
2022-10-18T13:26:01.327Z,102871.22
2022-10-18T13:28:46.806Z,102867.78
2022-10-18T13:31:33.200Z,102883.19
2022-10-18T13:34:25.283Z,102861.38
2022-10-18T13:37:15.967Z,102861.97
2022-10-18T13:39:43.604Z,102864.41
2022-10-18T13:42:33.661Z,102870.34
2022-10-18T13:45:32.281Z,102863.50
2022-10-18T13:48:30.756Z,102864.94
2022-10-18T13:51:16.059Z,102874.34
2022-10-18T13:53:56.307Z,102874.97
2022-10-18T13:56:38.748Z,102876.34
2022-10-18T13:59:29.726Z,102877.03
2022-10-18T14:02:42.834Z,102881.00
2022-10-18T14:05:34.264Z,102886.78
2022-10-18T14:08:39.904Z,102890.06
2022-10-18T14:11:35.832Z,102882.28
2022-10-18T14:14:29.953Z,102890.94
2022-10-18T14:16:57.822Z,102882.25
2022-10-18T14:19:25.238Z,102895.56
2022-10-18T14:21:59.236Z,102893.00
2022-10-18T14:24:29.235Z,102902.06
2022-10-18T14:27:23.571Z,102908.31
2022-10-18T14:30:17.646Z,102896.00
2022-10-18T14:32:50.554Z,102900.75
2022-10-18T14:35:32.533Z,102904.25
2022-10-18T14:38:01.246Z,102903.78
2022-10-18T14:40:41.033Z,102901.69
2022-10-18T14:43:19.395Z,102902.84
2022-10-18T14:45:46.980Z,102895.06
2022-10-18T14:48:16.127Z,102897.75
2022-10-18T14:50:46.285Z,102904.84
2022-10-18T14:53:25.179Z,102905.06
2022-10-18T14:55:55.664Z,102896.81
2022-10-18T14:58:23.768Z,102903.41
2022-10-18T15:00:51.247Z,102899.78
2022-10-18T15:03:19.442Z,102900.25
2022-10-18T15:05:55.872Z,102900.50
2022-10-18T15:08:27.335Z,102903.38
2022-10-18T15:10:55.706Z,102900.59
2022-10-18T15:13:25.195Z,102901.13
2022-10-18T15:15:54.338Z,102902.72
2022-10-18T15:18:24.549Z,102899.19
2022-10-18T15:21:22.357Z,102891.75
2022-10-18T15:23:50.978Z,102885.09
2022-10-18T15:26:30.613Z,102894.44
2022-10-18T15:29:01.529Z,102891.75
2022-10-18T15:31:35.061Z,102897.34
2022-10-18T15:34:15.387Z,102894.16
2022-10-18T15:39:20.480Z,102898.31
2022-10-18T15:41:52.366Z,102898.31
2022-10-18T15:44:34.740Z,102899.44
2022-10-18T15:47:16.168Z,102898.00
2022-10-18T15:49:46.375Z,102900.97
2022-10-18T15:52:38.509Z,102892.81
2022-10-18T15:55:31.282Z,102894.47
2022-10-18T15:58:06.985Z,102895.81
2022-10-18T16:00:34.427Z,102894.53
2022-10-18T16:03:01.944Z,102895.84
2022-10-18T16:05:29.555Z,102897.84
2022-10-18T16:07:57.332Z,102885.81
2022-10-18T16:10:25.035Z,102894.31
2022-10-18T16:12:52.764Z,102888.13
2022-10-18T16:15:20.666Z,102886.69
2022-10-18T16:17:48.964Z,102889.63
2022-10-18T16:20:21.453Z,102886.38
2022-10-18T16:22:48.915Z,102890.78
2022-10-18T16:25:16.812Z,102885.22
2022-10-18T16:27:44.672Z,102894.38
2022-10-18T16:30:18.534Z,102896.78
2022-10-18T16:32:46.784Z,102899.09
2022-10-18T16:35:14.355Z,102909.69
2022-10-18T16:37:41.813Z,102913.44
2022-10-18T16:40:22.637Z,102909.53
2022-10-18T16:42:50.038Z,102910.03
2022-10-18T16:45:18.161Z,102908.53
2022-10-18T16:47:46.031Z,102922.75
2022-10-18T16:50:16.683Z,102913.44
2022-10-18T16:52:44.538Z,102919.34
2022-10-18T16:55:21.311Z,102918.81
2022-10-18T16:57:50.324Z,102917.69
2022-10-18T17:00:21.016Z,102925.19
2022-10-18T17:02:50.236Z,102922.75
2022-10-18T17:05:18.430Z,102922.59
2022-10-18T17:07:47.021Z,102930.75
2022-10-18T17:10:17.007Z,102935.81
2022-10-18T17:12:44.537Z,102942.13
2022-10-18T17:15:12.827Z,102940.84
2022-10-18T17:17:40.492Z,102945.25
2022-10-18T17:20:08.849Z,102943.63
2022-10-18T17:22:36.550Z,102951.94
2022-10-18T17:25:04.167Z,102949.81
2022-10-18T17:27:32.042Z,102950.16
2022-10-18T17:29:59.683Z,102945.09
2022-10-18T17:32:27.443Z,102953.22
2022-10-18T17:34:55.112Z,102954.38
2022-10-18T17:37:22.552Z,102954.06
2022-10-18T17:39:50.012Z,102953.22
2022-10-18T17:42:17.809Z,102959.59
2022-10-18T17:44:45.953Z,102963.50
2022-10-18T17:47:14.051Z,102966.09
2022-10-18T17:49:44.478Z,102969.84
2022-10-18T17:52:12.054Z,102970.16
2022-10-18T17:54:39.619Z,102967.09
2022-10-18T17:57:07.268Z,102970.97
2022-10-18T17:59:34.673Z,102966.06
2022-10-18T18:02:02.135Z,102966.72
2022-10-18T18:04:29.777Z,102967.34
2022-10-18T18:06:59.415Z,102969.16
2022-10-18T18:09:27.651Z,102968.50
2022-10-18T18:11:55.725Z,102976.63
2022-10-18T18:14:23.162Z,102978.75
2022-10-18T18:16:50.604Z,102971.22
2022-10-18T18:19:21.318Z,102984.22
2022-10-18T18:21:49.279Z,102979.03
2022-10-18T18:24:17.751Z,102976.25
2022-10-18T18:26:45.345Z,102969.25
2022-10-18T18:29:13.335Z,102972.38
2022-10-18T18:31:43.773Z,102975.94
2022-10-18T18:34:11.759Z,102980.97
2022-10-18T18:36:39.812Z,102976.91
2022-10-18T18:39:08.917Z,102978.50
2022-10-18T18:41:37.803Z,102970.50
2022-10-18T18:44:06.408Z,102972.09
2022-10-18T18:46:38.937Z,102974.53
2022-10-18T18:49:08.019Z,102967.34
2022-10-18T18:51:40.229Z,102982.03
2022-10-18T18:54:10.429Z,102979.94
2022-10-18T18:56:38.539Z,102980.41
2022-10-18T18:59:07.204Z,102984.81
2022-10-18T19:01:38.412Z,102982.41
2022-10-18T19:04:07.600Z,102979.25
2022-10-18T19:06:38.208Z,102987.22
2022-10-18T19:09:12.381Z,102986.59
2022-10-18T19:11:40.142Z,102984.00
2022-10-18T19:14:08.949Z,102977.00
2022-10-18T19:16:39.450Z,102972.47
2022-10-18T19:19:16.729Z,102974.28
2022-10-18T19:21:59.331Z,102979.50
2022-10-18T19:24:28.859Z,102973.31
2022-10-18T19:26:59.941Z,102977.09
2022-10-18T19:29:30.531Z,102979.03
2022-10-18T19:32:00.807Z,102975.63
2022-10-18T19:34:30.219Z,102989.13
2022-10-18T19:36:58.180Z,102987.69
2022-10-18T19:39:28.678Z,102983.78
2022-10-18T19:41:59.391Z,102987.19
2022-10-18T19:44:30.276Z,102984.94
2022-10-18T19:46:58.416Z,102999.91
2022-10-18T19:49:26.456Z,102990.31
2022-10-18T19:51:54.938Z,102983.78
2022-10-18T19:54:22.497Z,102986.06
2022-10-18T19:56:50.166Z,102986.34
2022-10-18T19:59:18.143Z,102987.28
2022-10-18T20:01:45.788Z,102994.75
2022-10-18T20:04:14.285Z,102991.59
2022-10-18T20:06:42.689Z,102998.28
2022-10-18T20:09:14.650Z,103005.75
2022-10-18T20:11:45.605Z,103014.03
2022-10-18T20:14:13.047Z,103012.09
2022-10-18T20:16:40.510Z,103004.63
2022-10-18T20:19:08.213Z,103000.19
2022-10-18T20:21:36.379Z,103004.22
2022-10-18T20:24:05.717Z,103012.16
2022-10-18T20:26:34.723Z,103009.22
2022-10-18T20:29:02.446Z,103006.06
2022-10-18T20:31:31.906Z,103007.34
2022-10-18T20:34:06.277Z,102998.97
2022-10-18T20:36:34.893Z,102990.63
2022-10-18T20:39:04.319Z,102992.53
2022-10-18T20:41:35.306Z,102996.66
2022-10-18T20:44:05.554Z,103001.09
2022-10-18T20:46:35.760Z,103002.97
2022-10-18T20:49:05.174Z,102994.69
2022-10-18T20:51:35.860Z,103004.47
2022-10-18T20:56:35.600Z,102994.78
2022-10-18T20:59:06.247Z,102984.06
2022-10-18T21:01:34.725Z,102990.63
2022-10-18T21:04:05.571Z,102983.97
2022-10-18T21:06:35.793Z,102978.66
2022-10-18T21:09:06.369Z,102987.94
2022-10-18T21:11:39.407Z,102998.53
2022-10-18T21:14:10.209Z,102998.03
2022-10-18T21:16:38.015Z,102988.22
2022-10-18T21:19:28.256Z,102997.19
2022-10-18T21:21:57.890Z,102985.50
2022-10-18T21:24:26.590Z,102997.22
2022-10-18T21:26:54.941Z,102997.91
2022-10-18T21:29:24.811Z,102996.97
2022-10-18T21:31:55.651Z,102991.00
2022-10-18T21:34:23.118Z,103001.88
2022-10-18T21:36:51.193Z,102998.19
2022-10-18T21:39:21.318Z,103007.41
2022-10-18T21:41:49.435Z,103007.78
2022-10-18T21:44:17.147Z,103001.53
2022-10-18T21:46:45.337Z,103005.19
2022-10-18T21:49:13.865Z,103004.13
2022-10-18T21:51:41.494Z,102986.56
2022-10-18T21:54:14.804Z,102991.03
2022-10-18T21:56:42.483Z,102988.66
2022-10-18T21:59:12.122Z,102982.69
2022-10-18T22:01:40.431Z,102980.53
2022-10-18T22:04:18.226Z,102985.78
2022-10-18T22:06:45.716Z,102982.53
2022-10-18T22:09:13.136Z,102981.41
2022-10-18T22:11:47.601Z,102985.78
2022-10-18T22:14:15.204Z,102980.09
2022-10-18T22:16:42.732Z,102983.34
2022-10-18T22:19:10.514Z,102982.91
2022-10-18T22:21:37.930Z,102978.06
2022-10-18T22:24:07.479Z,102975.56
2022-10-18T22:26:37.949Z,102981.50
2022-10-18T22:29:16.970Z,102976.47
2022-10-18T22:31:47.494Z,102976.88
2022-10-18T22:34:29.322Z,102973.75
2022-10-18T22:36:57.099Z,102966.78
2022-10-18T22:39:24.701Z,102967.75
2022-10-18T22:41:55.868Z,102972.47
2022-10-18T22:44:24.320Z,102966.56
2022-10-18T22:46:51.705Z,102969.22
2022-10-18T22:49:19.180Z,102973.91
2022-10-18T22:51:46.711Z,102971.69
2022-10-18T22:54:14.439Z,102972.72
2022-10-18T22:56:41.844Z,102977.63
2022-10-18T22:59:09.385Z,102969.34
2022-10-18T23:01:38.104Z,102966.59
2022-10-18T23:04:05.489Z,102966.19
2022-10-18T23:06:36.490Z,102961.88
2022-10-18T23:09:07.233Z,102964.91
2022-10-18T23:11:35.908Z,102965.75
2022-10-18T23:14:05.228Z,102968.50
2022-10-18T23:16:33.077Z,102962.16
2022-10-18T23:19:00.561Z,102960.97
2022-10-18T23:21:28.667Z,102958.94
2022-10-18T23:23:57.584Z,102959.88
2022-10-18T23:26:27.818Z,102956.72
2022-10-18T23:28:55.891Z,102954.41
2022-10-18T23:31:26.844Z,102951.84
2022-10-18T23:33:56.769Z,102955.38
2022-10-18T23:36:25.059Z,102956.91
2022-10-18T23:38:52.699Z,102967.53
2022-10-18T23:41:20.586Z,102964.44
2022-10-18T23:43:48.703Z,102959.75
2022-10-18T23:46:17.449Z,102967.94
2022-10-18T23:48:45.759Z,102962.94
2022-10-18T23:51:13.874Z,102966.69
2022-10-18T23:53:41.260Z,102966.63
2022-10-18T23:56:11.526Z,102971.22
2022-10-18T23:58:39.712Z,102967.34
